createdAt,value
2024-04-15T00:00:04.440Z,94897.00
2024-04-15T00:01:04.541Z,94896.00
2024-04-15T00:02:04.588Z,94892.00
2024-04-15T00:03:04.700Z,94886.00
2024-04-15T00:04:04.773Z,94883.00
2024-04-15T00:05:04.816Z,94886.00
2024-04-15T00:06:04.832Z,94888.00
2024-04-15T00:07:04.922Z,94890.00
2024-04-15T00:08:05.001Z,94890.00
2024-04-15T00:09:05.036Z,94888.00
2024-04-15T00:10:05.150Z,94886.00
2024-04-15T00:11:05.238Z,94884.00
2024-04-15T00:12:05.221Z,94886.00
2024-04-15T00:13:05.323Z,94890.00
2024-04-15T00:14:05.364Z,94894.00
2024-04-15T00:15:05.463Z,94889.00
2024-04-15T00:16:05.692Z,94875.00
2024-04-15T00:17:05.599Z,94875.00
2024-04-15T00:18:05.733Z,94880.00
2024-04-15T00:19:05.816Z,94886.00
2024-04-15T00:20:05.792Z,94882.00
2024-04-15T00:21:05.892Z,94870.00
2024-04-15T00:22:05.967Z,94863.00
2024-04-15T00:23:06.006Z,94869.00
2024-04-15T00:24:06.066Z,94872.00
2024-04-15T00:25:06.176Z,94870.00
2024-04-15T00:26:06.209Z,94866.00
2024-04-15T00:27:06.288Z,94862.00
2024-04-15T00:28:06.355Z,94863.00
2024-04-15T00:29:06.432Z,94868.00
2024-04-15T00:30:06.510Z,94867.00
2024-04-15T00:31:06.618Z,94870.00
2024-04-15T00:32:06.665Z,94866.00
2024-04-15T00:33:06.862Z,94858.00
2024-04-15T00:34:06.837Z,94852.00
2024-04-15T00:35:06.916Z,94849.00
2024-04-15T00:36:06.959Z,94850.00
2024-04-15T00:37:07.049Z,94851.00
2024-04-15T00:38:07.110Z,94848.00
2024-04-15T00:39:07.201Z,94851.00
2024-04-15T00:40:07.271Z,94848.00
2024-04-15T00:41:07.338Z,94844.00
2024-04-15T00:42:07.382Z,94842.00
2024-04-15T00:43:07.531Z,94841.00
2024-04-15T00:44:07.530Z,94842.00
2024-04-15T00:45:07.632Z,94843.00
2024-04-15T00:46:07.827Z,94842.00
2024-04-15T00:47:07.826Z,94837.00
2024-04-15T00:48:07.940Z,94830.00
2024-04-15T00:49:07.942Z,94821.00
2024-04-15T00:50:08.028Z,94827.00
2024-04-15T00:51:08.113Z,94833.00
2024-04-15T00:52:08.242Z,94834.00
2024-04-15T00:53:08.244Z,94831.00
2024-04-15T00:54:08.322Z,94830.00
2024-04-15T00:55:08.468Z,94831.00
2024-04-15T00:56:08.523Z,94830.00
2024-04-15T00:57:08.599Z,94825.00
2024-04-15T00:58:08.719Z,94817.00
2024-04-15T00:59:08.757Z,94816.00
2024-04-15T01:00:08.877Z,94812.00
2024-04-15T01:01:09.130Z,94817.00
2024-04-15T01:02:09.104Z,94822.00
2024-04-15T01:03:09.164Z,94822.00
2024-04-15T01:04:09.313Z,94821.00
2024-04-15T01:05:09.308Z,94817.00
2024-04-15T01:06:09.400Z,94813.00
2024-04-15T01:07:09.567Z,94807.00
2024-04-15T01:08:09.596Z,94801.00
2024-04-15T01:09:09.692Z,94799.00
2024-04-15T01:10:09.933Z,94799.00
2024-04-15T01:11:09.938Z,94802.00
2024-04-15T01:12:09.957Z,94802.00
2024-04-15T01:13:10.105Z,94800.00
2024-04-15T01:14:10.158Z,94801.00
2024-04-15T01:15:10.242Z,94801.00
2024-04-15T01:16:10.405Z,94804.00
2024-04-15T01:17:10.491Z,94806.00
2024-04-15T01:18:10.621Z,94800.00
2024-04-15T01:19:10.655Z,94796.00
2024-04-15T01:20:10.733Z,94799.00
2024-04-15T01:21:10.831Z,94802.00
2024-04-15T01:22:11.164Z,94799.00
2024-04-15T01:23:11.016Z,94801.00
2024-04-15T01:24:11.121Z,94803.00
2024-04-15T01:25:11.254Z,94800.00
2024-04-15T01:26:11.405Z,94801.00
2024-04-15T01:27:11.406Z,94797.00
2024-04-15T01:28:11.532Z,94795.00
2024-04-15T01:29:11.606Z,94794.00
2024-04-15T01:30:11.674Z,94792.00
2024-04-15T01:31:11.873Z,94788.00
2024-04-15T01:32:11.987Z,94791.00
2024-04-15T01:33:11.971Z,94794.00
2024-04-15T01:34:12.132Z,94795.00
2024-04-15T01:35:12.169Z,94790.00
2024-04-15T01:36:12.276Z,94783.00
2024-04-15T01:37:12.409Z,94782.00
2024-04-15T01:38:12.404Z,94783.00
2024-04-15T01:39:12.516Z,94777.00
2024-04-15T01:40:12.740Z,94773.00
2024-04-15T01:41:12.726Z,94773.00
2024-04-15T01:42:12.768Z,94770.00
2024-04-15T01:43:12.946Z,94766.00
2024-04-15T01:44:12.960Z,94762.00
2024-04-15T01:45:13.077Z,94769.00
2024-04-15T01:46:13.212Z,94772.00
2024-04-15T01:47:13.232Z,94776.00
2024-04-15T01:48:13.340Z,94774.00
2024-04-15T01:49:13.525Z,94769.00
2024-04-15T01:50:13.502Z,94764.00
2024-04-15T01:51:13.612Z,94761.00
2024-04-15T01:52:13.753Z,94759.00
2024-04-15T01:53:13.762Z,94753.00
2024-04-15T01:54:13.840Z,94753.00
2024-04-15T01:55:14.041Z,94753.00
2024-04-15T01:56:14.085Z,94756.00
2024-04-15T01:57:14.148Z,94754.00
2024-04-15T01:58:14.288Z,94751.00
2024-04-15T01:59:14.317Z,94752.00
2024-04-15T02:00:14.427Z,94751.00
2024-04-15T02:01:14.577Z,94750.00
2024-04-15T02:02:14.580Z,94751.00
2024-04-15T02:03:14.785Z,94753.00
2024-04-15T02:04:14.793Z,94753.00
2024-04-15T02:05:14.829Z,94751.00
2024-04-15T02:06:14.977Z,94751.00
2024-04-15T02:07:15.090Z,94749.00
2024-04-15T02:08:15.090Z,94747.00
2024-04-15T02:09:15.213Z,94746.00
2024-04-15T02:10:15.395Z,94740.00
2024-04-15T02:12:15.462Z,94734.00
2024-04-15T02:13:15.614Z,94730.00
2024-04-15T02:14:15.640Z,94726.00
2024-04-15T02:15:15.730Z,94728.00
2024-04-15T02:16:15.958Z,94731.00
2024-04-15T02:17:15.914Z,94729.00
2024-04-15T02:18:16.087Z,94730.00
2024-04-15T02:19:16.108Z,94727.00
2024-04-15T02:20:16.202Z,94720.00
2024-04-15T02:21:16.339Z,94714.00
2024-04-15T02:22:16.475Z,94710.00
2024-04-15T02:23:16.458Z,94702.00
2024-04-15T02:24:16.567Z,94700.00
2024-04-15T02:25:16.767Z,94707.00
2024-04-15T02:26:16.860Z,94712.00
2024-04-15T02:27:16.857Z,94720.00
2024-04-15T02:28:16.949Z,94721.00
2024-04-15T02:29:17.079Z,94717.00
2024-04-15T02:30:17.152Z,94709.00
2024-04-15T02:31:17.277Z,94700.00
2024-04-15T02:32:17.384Z,94701.00
2024-04-15T02:33:17.406Z,94707.00
2024-04-15T02:34:17.555Z,94711.00
2024-04-15T02:35:17.607Z,94712.00
2024-04-15T02:36:17.709Z,94713.00
2024-04-15T02:37:17.850Z,94710.00
2024-04-15T02:38:17.894Z,94698.00
2024-04-15T02:39:17.958Z,94695.00
2024-04-15T02:40:18.175Z,94699.00
2024-04-15T02:41:18.196Z,94701.00
2024-04-15T02:42:18.273Z,94693.00
2024-04-15T02:43:18.409Z,94691.00
2024-04-15T02:44:18.448Z,94706.00
2024-04-15T02:45:18.547Z,94705.00
2024-04-15T02:46:18.730Z,94701.00
2024-04-15T02:47:18.809Z,94707.00
2024-04-15T02:48:18.962Z,94705.00
2024-04-15T02:49:19.018Z,94686.00
2024-04-15T02:50:19.049Z,94677.00
2024-04-15T02:51:19.171Z,94681.00
2024-04-15T02:52:19.269Z,94693.00
2024-04-15T02:53:19.331Z,94700.00
2024-04-15T02:54:19.441Z,94698.00
2024-04-15T02:55:22.955Z,94686.00
2024-04-15T02:56:19.540Z,94685.00
2024-04-15T02:57:19.531Z,94684.00
2024-04-15T02:58:19.609Z,94686.00
2024-04-15T02:59:19.540Z,94688.00
2024-04-15T03:00:19.533Z,94683.00
2024-04-15T03:01:20.179Z,94681.00
2024-04-15T03:02:19.513Z,94684.00
2024-04-15T03:03:19.525Z,94685.00
2024-04-15T03:04:19.614Z,94681.00
2024-04-15T03:05:19.582Z,94671.00
2024-04-15T03:06:19.590Z,94658.00
2024-04-15T03:07:19.588Z,94656.00
2024-04-15T03:08:19.557Z,94665.00
2024-04-15T03:09:19.586Z,94668.00
2024-04-15T03:10:19.582Z,94661.00
2024-04-15T03:11:19.551Z,94649.00
2024-04-15T03:12:19.561Z,94650.00
2024-04-15T03:13:19.586Z,94656.00
2024-04-15T03:14:19.561Z,94657.00
2024-04-15T03:15:19.594Z,94653.00
2024-04-15T03:16:25.774Z,94649.00
2024-04-15T03:17:21.598Z,94648.00
2024-04-15T03:18:19.643Z,94650.00
2024-04-15T03:19:19.751Z,94652.00
2024-04-15T03:20:19.658Z,94651.00
2024-04-15T03:21:19.649Z,94647.00
2024-04-15T03:22:19.687Z,94640.00
2024-04-15T03:23:19.655Z,94639.00
2024-04-15T03:24:19.663Z,94640.00
2024-04-15T03:25:19.674Z,94643.00
2024-04-15T03:26:19.650Z,94643.00
2024-04-15T03:27:19.672Z,94643.00
2024-04-15T03:28:19.695Z,94639.00
2024-04-15T03:29:19.705Z,94629.00
2024-04-15T03:30:19.781Z,94622.00
2024-04-15T03:31:20.006Z,94622.00
2024-04-15T03:32:20.073Z,94626.00
2024-04-15T03:33:20.103Z,94628.00
2024-04-15T03:34:20.268Z,94625.00
2024-04-15T03:35:20.378Z,94617.00
2024-04-15T03:36:20.418Z,94617.00
2024-04-15T03:37:20.565Z,94617.00
2024-04-15T03:38:20.637Z,94617.00
2024-04-15T03:39:20.708Z,94614.00
2024-04-15T03:40:20.891Z,94612.00
2024-04-15T03:41:20.922Z,94610.00
2024-04-15T03:42:21.036Z,94610.00
2024-04-15T03:43:21.145Z,94612.00
2024-04-15T03:44:21.262Z,94614.00
2024-04-15T03:45:21.338Z,94616.00
2024-04-15T03:46:21.520Z,94618.00
2024-04-15T03:47:21.607Z,94619.00
2024-04-15T03:48:21.625Z,94617.00
2024-04-15T03:49:21.805Z,94612.00
2024-04-15T03:50:21.913Z,94608.00
2024-04-15T03:51:21.962Z,94605.00
2024-04-15T03:52:22.054Z,94605.00
2024-04-15T03:53:22.163Z,94606.00
2024-04-15T03:54:22.258Z,94606.00
2024-04-15T03:55:22.411Z,94602.00
2024-04-15T03:56:22.474Z,94597.00
2024-04-15T03:57:22.622Z,94589.00
2024-04-15T03:58:22.771Z,94590.00
2024-04-15T03:59:22.788Z,94594.00
2024-04-15T04:00:22.899Z,94596.00
2024-04-15T04:01:23.063Z,94595.00
2024-04-15T04:02:23.105Z,94594.00
2024-04-15T04:03:23.260Z,94595.00
2024-04-15T04:04:23.435Z,94603.00
2024-04-15T04:05:23.427Z,94605.00
2024-04-15T04:06:23.523Z,94597.00
2024-04-15T04:07:23.696Z,94583.00
2024-04-15T04:08:23.746Z,94582.00
2024-04-15T04:09:23.848Z,94591.00
2024-04-15T04:10:31.133Z,94593.00
2024-04-15T04:11:31.006Z,94590.00
2024-04-15T04:12:31.012Z,94585.00
2024-04-15T04:13:31.015Z,94587.00
2024-04-15T04:14:31.015Z,94589.00
2024-04-15T04:15:31.451Z,94594.00
2024-04-15T04:16:31.007Z,94592.00
2024-04-15T04:17:31.088Z,94591.00
2024-04-15T04:18:31.106Z,94591.00
2024-04-15T04:19:31.032Z,94589.00
2024-04-15T04:20:31.024Z,94582.00
2024-04-15T04:21:31.031Z,94574.00
2024-04-15T04:22:31.026Z,94569.00
2024-04-15T04:23:31.004Z,94568.00
2024-04-15T04:24:31.055Z,94572.00
2024-04-15T04:25:31.017Z,94573.00
2024-04-15T04:26:31.107Z,94579.00
2024-04-15T04:27:31.117Z,94574.00
2024-04-15T04:28:31.123Z,94571.00
2024-04-15T04:29:31.073Z,94567.00
2024-04-15T04:30:31.080Z,94570.00
2024-04-15T04:31:38.212Z,94575.00
2024-04-15T04:32:38.259Z,94579.00
2024-04-15T04:33:38.231Z,94576.00
2024-04-15T04:34:38.271Z,94566.00
2024-04-15T04:35:38.232Z,94565.00
2024-04-15T04:36:38.287Z,94565.00
2024-04-15T04:37:41.199Z,94571.00
2024-04-15T04:38:38.262Z,94572.00
2024-04-15T04:39:38.261Z,94573.00
2024-04-15T04:40:38.251Z,94569.00
2024-04-15T04:41:38.274Z,94569.00
2024-04-15T04:42:38.263Z,94565.00
2024-04-15T04:43:38.263Z,94563.00
2024-04-15T04:44:38.239Z,94562.00
2024-04-15T04:45:38.275Z,94562.00
2024-04-15T04:46:38.288Z,94558.00
2024-04-15T04:47:38.285Z,94555.00
2024-04-15T04:48:38.275Z,94558.00
2024-04-15T04:49:38.292Z,94560.00
2024-04-15T04:50:38.269Z,94562.00
2024-04-15T04:51:38.399Z,94555.00
2024-04-15T04:52:38.380Z,94550.00
2024-04-15T04:53:38.299Z,94549.00
2024-04-15T04:54:38.256Z,94554.00
2024-04-15T04:55:38.307Z,94558.00
2024-04-15T04:56:38.308Z,94558.00
2024-04-15T04:57:38.331Z,94556.00
2024-04-15T04:58:38.293Z,94551.00
2024-04-15T04:59:38.302Z,94548.00
2024-04-15T05:00:38.271Z,94547.00
2024-04-15T05:01:38.588Z,94548.00
2024-04-15T05:02:38.492Z,94550.00
2024-04-15T05:03:38.658Z,94546.00
2024-04-15T05:04:38.743Z,94543.00
2024-04-15T05:05:38.815Z,94544.00
2024-04-15T05:06:38.934Z,94544.00
2024-04-15T05:07:39.122Z,94545.00
2024-04-15T05:08:39.139Z,94545.00
2024-04-15T05:09:39.248Z,94546.00
2024-04-15T05:10:39.323Z,94549.00
2024-04-15T05:11:39.558Z,94553.00
2024-04-15T05:12:39.570Z,94561.00
2024-04-15T05:13:39.683Z,94561.00
2024-04-15T05:14:39.804Z,94558.00
2024-04-15T05:15:39.907Z,94547.00
2024-04-15T05:16:40.189Z,94539.00
2024-04-15T05:17:40.183Z,94548.00
2024-04-15T05:18:40.341Z,94557.00
2024-04-15T05:19:40.352Z,94559.00
2024-04-15T05:20:40.466Z,94557.00
2024-04-15T05:21:40.582Z,94558.00
2024-04-15T05:22:40.745Z,94560.00
2024-04-15T05:23:40.812Z,94562.00
2024-04-15T05:24:40.953Z,94561.00
2024-04-15T05:25:41.041Z,94556.00
2024-04-15T05:26:42.876Z,94548.00
2024-04-15T05:27:41.182Z,94545.00
2024-04-15T05:28:41.206Z,94550.00
2024-04-15T05:29:41.222Z,94553.00
2024-04-15T05:30:41.236Z,94549.00
2024-04-15T05:31:41.340Z,94547.00
2024-04-15T05:32:41.488Z,94540.00
2024-04-15T05:33:41.480Z,94534.00
2024-04-15T05:34:41.636Z,94529.00
2024-04-15T05:35:41.701Z,94526.00
2024-04-15T05:36:41.887Z,94527.00
2024-04-15T05:37:41.939Z,94529.00
2024-04-15T05:38:42.071Z,94533.00
2024-04-15T05:39:42.825Z,94529.00
2024-04-15T05:40:42.181Z,94535.00
2024-04-15T05:41:42.241Z,94539.00
2024-04-15T05:42:42.248Z,94542.00
2024-04-15T05:43:42.366Z,94538.00
2024-04-15T05:44:42.258Z,94534.00
2024-04-15T05:45:42.314Z,94531.00
2024-04-15T05:46:42.429Z,94532.00
2024-04-15T05:47:42.586Z,94534.00
2024-04-15T05:48:42.705Z,94543.00
2024-04-15T05:49:42.762Z,94544.00
2024-04-15T05:50:42.826Z,94541.00
2024-04-15T05:51:42.982Z,94537.00
2024-04-15T05:52:43.004Z,94536.00
2024-04-15T05:53:43.144Z,94533.00
2024-04-15T05:54:43.212Z,94532.00
2024-04-15T05:55:43.299Z,94527.00
2024-04-15T05:56:43.429Z,94523.00
2024-04-15T05:57:43.606Z,94522.00
2024-04-15T05:58:43.574Z,94522.00
2024-04-15T05:59:43.652Z,94523.00
2024-04-15T06:00:44.156Z,94526.00
2024-04-15T06:01:43.832Z,94526.00
2024-04-15T06:02:43.855Z,94526.00
2024-04-15T06:03:43.992Z,94529.00
2024-04-15T06:04:43.923Z,94529.00
2024-04-15T06:05:43.964Z,94525.00
2024-04-15T06:06:44.091Z,94525.00
2024-04-15T06:07:44.054Z,94523.00
2024-04-15T06:08:44.184Z,94524.00
2024-04-15T06:09:44.226Z,94527.00
2024-04-15T06:10:44.293Z,94527.00
2024-04-15T06:11:44.264Z,94528.00
2024-04-15T06:12:44.316Z,94525.00
2024-04-15T06:13:44.376Z,94524.00
2024-04-15T06:14:44.409Z,94522.00
2024-04-15T06:15:44.607Z,94522.00
2024-04-15T06:16:44.594Z,94525.00
2024-04-15T06:17:44.603Z,94525.00
2024-04-15T06:18:44.651Z,94525.00
2024-04-15T06:19:44.637Z,94524.00
2024-04-15T06:20:44.666Z,94525.00
2024-04-15T06:21:44.764Z,94528.00
2024-04-15T06:22:44.749Z,94533.00
2024-04-15T06:23:44.794Z,94534.00
2024-04-15T06:24:44.880Z,94534.00
2024-04-15T06:25:44.909Z,94531.00
2024-04-15T06:26:44.974Z,94528.00
2024-04-15T06:27:45.175Z,94528.00
2024-04-15T06:28:45.052Z,94526.00
2024-04-15T06:29:45.082Z,94521.00
2024-04-15T06:30:45.248Z,94520.00
2024-04-15T06:31:45.207Z,94523.00
2024-04-15T06:32:45.282Z,94529.00
2024-04-15T06:33:45.250Z,94528.00
2024-04-15T06:34:45.246Z,94530.00
2024-04-15T06:35:45.235Z,94524.00
2024-04-15T06:36:45.282Z,94525.00
2024-04-15T06:37:45.246Z,94524.00
2024-04-15T06:38:45.248Z,94525.00
2024-04-15T06:39:45.334Z,94529.00
2024-04-15T06:40:45.293Z,94530.00
2024-04-15T06:41:45.370Z,94531.00
2024-04-15T06:42:45.408Z,94533.00
2024-04-15T06:43:45.355Z,94529.00
2024-04-15T06:44:45.390Z,94525.00
2024-04-15T06:45:45.407Z,94522.00
2024-04-15T06:46:45.427Z,94526.00
2024-04-15T06:47:45.418Z,94532.00
2024-04-15T06:48:45.425Z,94534.00
2024-04-15T06:49:45.439Z,94539.00
2024-04-15T06:50:45.498Z,94540.00
2024-04-15T06:51:45.591Z,94542.00
2024-04-15T06:52:45.616Z,94540.00
2024-04-15T06:53:45.689Z,94539.00
2024-04-15T06:54:45.719Z,94540.00
2024-04-15T06:55:45.741Z,94541.00
2024-04-15T06:56:45.828Z,94541.00
2024-04-15T06:57:45.832Z,94540.00
2024-04-15T06:58:45.911Z,94541.00
2024-04-15T06:59:45.963Z,94544.00
2024-04-15T07:00:46.073Z,94545.00
2024-04-15T07:01:46.195Z,94545.00
2024-04-15T07:02:46.180Z,94543.00
2024-04-15T07:03:46.313Z,94544.00
2024-04-15T07:04:46.301Z,94544.00
2024-04-15T07:05:46.317Z,94546.00
2024-04-15T07:06:48.535Z,94545.00
2024-04-15T07:07:46.568Z,94541.00
2024-04-15T07:08:46.618Z,94536.00
2024-04-15T07:09:46.674Z,94535.00
2024-04-15T07:10:46.702Z,94534.00
2024-04-15T07:11:46.757Z,94530.00
2024-04-15T07:12:46.833Z,94527.00
2024-04-15T07:13:46.815Z,94520.00
2024-04-15T07:14:46.863Z,94516.00
2024-04-15T07:15:46.971Z,94511.00
2024-04-15T07:16:46.988Z,94510.00
2024-04-15T07:17:47.077Z,94510.00
2024-04-15T07:18:47.082Z,94507.00
2024-04-15T07:19:47.139Z,94505.00
2024-04-15T07:20:47.082Z,94504.00
2024-04-15T07:21:47.142Z,94503.00
2024-04-15T07:22:47.145Z,94504.00
2024-04-15T07:23:47.220Z,94503.00
2024-04-15T07:24:47.322Z,94503.00
2024-04-15T07:25:47.371Z,94502.00
2024-04-15T07:26:47.521Z,94499.00
2024-04-15T07:27:47.555Z,94500.00
2024-04-15T07:28:47.639Z,94500.00
2024-04-15T07:29:47.740Z,94503.00
2024-04-15T07:30:47.834Z,94504.00
2024-04-15T07:31:47.924Z,94504.00
2024-04-15T07:32:48.071Z,94508.00
2024-04-15T07:33:48.092Z,94511.00
2024-04-15T07:34:48.198Z,94519.00
2024-04-15T07:35:48.286Z,94524.00
2024-04-15T07:36:48.397Z,94526.00
2024-04-15T07:37:48.485Z,94527.00
2024-04-15T07:38:48.626Z,94528.00
2024-04-15T07:39:48.750Z,94530.00
2024-04-15T07:40:48.770Z,94530.00
2024-04-15T07:41:48.946Z,94528.00
2024-04-15T07:42:48.991Z,94525.00
2024-04-15T07:43:49.059Z,94522.00
2024-04-15T07:44:49.187Z,94523.00
2024-04-15T07:45:49.271Z,94520.00
2024-04-15T07:46:49.387Z,94523.00
2024-04-15T07:47:49.495Z,94523.00
2024-04-15T07:48:49.586Z,94522.00
2024-04-15T07:49:49.621Z,94518.00
2024-04-15T07:50:49.715Z,94519.00
2024-04-15T07:51:49.805Z,94516.00
2024-04-15T07:52:49.862Z,94516.00
2024-04-15T07:53:49.928Z,94518.00
2024-04-15T07:54:50.051Z,94518.00
2024-04-15T07:55:50.121Z,94519.00
2024-04-15T07:56:50.232Z,94520.00
2024-04-15T07:57:50.345Z,94523.00
2024-04-15T07:58:50.372Z,94525.00
2024-04-15T07:59:50.479Z,94532.00
2024-04-15T08:00:50.648Z,94533.00
2024-04-15T08:01:50.778Z,94535.00
2024-04-15T08:02:50.815Z,94534.00
2024-04-15T08:03:50.902Z,94530.00
2024-04-15T08:04:51.003Z,94526.00
2024-04-15T08:05:51.026Z,94521.00
2024-04-15T08:06:59.940Z,94515.00
2024-04-15T08:07:52.176Z,94510.00
2024-04-15T08:08:51.130Z,94506.00
2024-04-15T08:09:51.127Z,94505.00
2024-04-15T08:10:51.139Z,94506.00
2024-04-15T08:11:51.132Z,94513.00
2024-04-15T08:12:51.137Z,94521.00
2024-04-15T08:13:51.143Z,94527.00
2024-04-15T08:14:51.187Z,94531.00
2024-04-15T08:15:51.195Z,94530.00
2024-04-15T08:16:51.315Z,94533.00
2024-04-15T08:17:51.188Z,94536.00
2024-04-15T08:18:51.233Z,94539.00
2024-04-15T08:19:51.249Z,94542.00
2024-04-15T08:20:51.319Z,94545.00
2024-04-15T08:21:51.433Z,94546.00
2024-04-15T08:22:51.500Z,94547.00
2024-04-15T08:23:51.551Z,94547.00
2024-04-15T08:24:51.660Z,94545.00
2024-04-15T08:25:51.693Z,94545.00
2024-04-15T08:26:51.858Z,94543.00
2024-04-15T08:27:51.914Z,94540.00
2024-04-15T08:28:51.913Z,94538.00
2024-04-15T08:29:51.990Z,94537.00
2024-04-15T08:30:52.111Z,94539.00
2024-04-15T08:31:55.392Z,94538.00
2024-04-15T08:32:52.226Z,94535.00
2024-04-15T08:33:52.223Z,94533.00
2024-04-15T08:34:52.180Z,94534.00
2024-04-15T08:35:52.167Z,94532.00
2024-04-15T08:36:52.921Z,94535.00
2024-04-15T08:37:52.163Z,94529.00
2024-04-15T08:38:52.117Z,94524.00
2024-04-15T08:39:52.902Z,94515.00
2024-04-15T08:40:52.156Z,94509.00
2024-04-15T08:47:18.583Z,94511.00
2024-04-15T08:47:52.307Z,94511.00
2024-04-15T08:48:52.307Z,94509.00
2024-04-15T08:49:52.319Z,94508.00
2024-04-15T08:50:52.332Z,94506.00
2024-04-15T08:51:52.387Z,94505.00
2024-04-15T08:52:52.530Z,94505.00
2024-04-15T08:53:52.440Z,94505.00
2024-04-15T08:54:52.558Z,94508.00
2024-04-15T08:55:52.579Z,94508.00
2024-04-15T08:56:52.607Z,94508.00
2024-04-15T08:57:52.734Z,94509.00
2024-04-15T08:58:52.677Z,94506.00
2024-04-15T08:59:52.704Z,94502.00
2024-04-15T09:00:52.754Z,94499.00
2024-04-15T09:01:52.817Z,94494.00
2024-04-15T09:02:52.864Z,94493.00
2024-04-15T09:03:52.842Z,94492.00
2024-04-15T09:04:56.293Z,94493.00
2024-04-15T09:05:53.926Z,94494.00
2024-04-15T09:06:52.950Z,94492.00
2024-04-15T09:07:52.927Z,94490.00
2024-04-15T09:08:52.924Z,94483.00
2024-04-15T09:09:52.957Z,94480.00
2024-04-15T09:10:52.945Z,94477.00
2024-04-15T09:11:55.568Z,94477.00
2024-04-15T09:12:52.937Z,94477.00
2024-04-15T09:13:52.926Z,94478.00
2024-04-15T09:14:52.925Z,94482.00
2024-04-15T09:15:53.013Z,94482.00
2024-04-15T09:16:53.031Z,94485.00
2024-04-15T09:17:52.998Z,94490.00
2024-04-15T09:18:52.940Z,94490.00
2024-04-15T09:19:52.926Z,94493.00
2024-04-15T09:21:00.038Z,94492.00
2024-04-15T09:21:53.954Z,94492.00
2024-04-15T09:22:52.938Z,94493.00
2024-04-15T09:23:52.968Z,94491.00
2024-04-15T09:24:52.947Z,94490.00
2024-04-15T09:25:52.926Z,94489.00
2024-04-15T09:26:52.939Z,94485.00
2024-04-15T09:27:52.981Z,94485.00
2024-04-15T09:28:52.968Z,94484.00
2024-04-15T09:29:53.028Z,94482.00
2024-04-15T09:30:53.147Z,94482.00
2024-04-15T09:31:53.263Z,94483.00
2024-04-15T09:32:53.393Z,94485.00
2024-04-15T09:33:53.450Z,94487.00
2024-04-15T09:34:53.530Z,94489.00
2024-04-15T09:35:53.616Z,94491.00
2024-04-15T09:37:53.249Z,94491.00
2024-04-15T09:38:53.248Z,94488.00
2024-04-15T09:39:53.281Z,94487.00
2024-04-15T09:40:53.275Z,94482.00
2024-04-15T09:41:53.262Z,94480.00
2024-04-15T09:42:53.400Z,94480.00
2024-04-15T09:43:53.272Z,94481.00
2024-04-15T09:44:53.259Z,94479.00
2024-04-15T09:45:53.331Z,94479.00
2024-04-15T09:46:53.273Z,94478.00
2024-04-15T09:47:53.464Z,94481.00
2024-04-15T09:48:53.332Z,94482.00
2024-04-15T09:49:53.288Z,94482.00
2024-04-15T09:50:53.261Z,94484.00
2024-04-15T09:51:53.403Z,94483.00
2024-04-15T09:52:53.495Z,94481.00
2024-04-15T09:53:53.312Z,94480.00
2024-04-15T09:54:53.292Z,94481.00
2024-04-15T09:55:53.320Z,94478.00
2024-04-15T09:56:53.294Z,94474.00
2024-04-15T09:57:53.319Z,94469.00
2024-04-15T09:58:53.323Z,94467.00
2024-04-15T09:59:53.300Z,94468.00
2024-04-15T10:00:53.365Z,94466.00
2024-04-15T10:01:53.355Z,94465.00
2024-04-15T10:02:53.350Z,94463.00
2024-04-15T10:03:53.383Z,94460.00
2024-04-15T10:04:53.433Z,94457.00
2024-04-15T10:05:53.468Z,94456.00
2024-04-15T10:06:53.610Z,94453.00
2024-04-15T10:07:53.376Z,94452.00
2024-04-15T10:08:53.360Z,94450.00
2024-04-15T10:09:53.436Z,94451.00
2024-04-15T10:10:53.451Z,94449.00
2024-04-15T10:11:53.464Z,94454.00
2024-04-15T10:12:53.472Z,94455.00
2024-04-15T10:13:53.481Z,94462.00
2024-04-15T10:14:58.031Z,94469.00
2024-04-15T10:15:53.560Z,94469.00
2024-04-15T10:16:53.628Z,94466.00
2024-04-15T10:17:53.742Z,94461.00
2024-04-15T10:18:53.524Z,94452.00
2024-04-15T10:19:53.611Z,94450.00
2024-04-15T10:20:53.600Z,94452.00
2024-04-15T10:21:53.575Z,94460.00
2024-04-15T10:22:53.566Z,94469.00
2024-04-15T10:23:53.521Z,94477.00
2024-04-15T10:24:53.564Z,94479.00
2024-04-15T10:25:53.592Z,94479.00
2024-04-15T10:26:53.573Z,94477.00
2024-04-15T10:27:53.542Z,94475.00
2024-04-15T10:28:53.577Z,94469.00
2024-04-15T10:29:53.569Z,94463.00
2024-04-15T10:30:53.626Z,94457.00
2024-04-15T10:31:53.637Z,94452.00
2024-04-15T10:32:53.612Z,94449.00
2024-04-15T10:33:53.601Z,94447.00
2024-04-15T10:34:53.556Z,94444.00
2024-04-15T10:35:53.611Z,94445.00
2024-04-15T10:36:53.649Z,94437.00
2024-04-15T10:37:53.545Z,94431.00
2024-04-15T10:38:53.687Z,94423.00
2024-04-15T10:39:53.638Z,94418.00
2024-04-15T10:40:53.557Z,94418.00
2024-04-15T10:41:53.752Z,94425.00
2024-04-15T10:42:53.694Z,94434.00
2024-04-15T10:43:53.577Z,94436.00
2024-04-15T10:44:53.568Z,94438.00
2024-04-15T10:45:53.633Z,94438.00
2024-04-15T10:46:53.652Z,94435.00
2024-04-15T10:47:53.752Z,94433.00
2024-04-15T10:48:53.754Z,94431.00
2024-04-15T10:49:53.792Z,94431.00
2024-04-15T10:50:53.840Z,94429.00
2024-04-15T10:51:53.965Z,94432.00
2024-04-15T10:52:53.949Z,94428.00
2024-04-15T10:53:54.273Z,94422.00
2024-04-15T10:54:54.153Z,94418.00
2024-04-15T10:55:54.176Z,94414.00
2024-04-15T10:56:54.278Z,94413.00
2024-04-15T10:57:54.393Z,94408.00
2024-04-15T10:58:54.407Z,94409.00
2024-04-15T10:59:54.624Z,94408.00
2024-04-15T11:00:54.598Z,94408.00
2024-04-15T11:01:54.728Z,94404.00
2024-04-15T11:02:54.842Z,94402.00
2024-04-15T11:03:54.897Z,94399.00
2024-04-15T11:04:54.998Z,94397.00
2024-04-15T11:05:54.961Z,94394.00
2024-04-15T11:06:55.093Z,94389.00
2024-04-15T11:07:55.173Z,94387.00
2024-04-15T11:08:55.199Z,94385.00
2024-04-15T11:09:55.307Z,94382.00
2024-04-15T11:10:55.425Z,94378.00
2024-04-15T11:11:55.458Z,94379.00
2024-04-15T11:12:55.633Z,94377.00
2024-04-15T11:13:55.645Z,94377.00
2024-04-15T11:14:55.745Z,94374.00
2024-04-15T11:15:55.892Z,94372.00
2024-04-15T11:16:55.967Z,94370.00
2024-04-15T11:17:56.077Z,94367.00
2024-04-15T11:18:56.179Z,94363.00
2024-04-15T11:19:56.230Z,94363.00
2024-04-15T11:20:56.408Z,94360.00
2024-04-15T11:21:57.215Z,94359.00
2024-04-15T11:22:56.648Z,94358.00
2024-04-15T11:23:56.671Z,94354.00
2024-04-15T11:24:56.847Z,94351.00
2024-04-15T11:25:56.876Z,94354.00
2024-04-15T11:26:56.995Z,94352.00
2024-04-15T11:27:57.109Z,94352.00
2024-04-15T11:28:57.180Z,94349.00
2024-04-15T11:30:02.861Z,94349.00
2024-04-15T11:30:58.325Z,94349.00
2024-04-15T11:31:57.296Z,94346.00
2024-04-15T11:32:57.364Z,94343.00
2024-04-15T11:33:57.378Z,94341.00
2024-04-15T11:34:57.296Z,94338.00
2024-04-15T11:35:57.312Z,94333.00
2024-04-15T11:36:57.323Z,94328.00
2024-04-15T11:37:57.301Z,94325.00
2024-04-15T11:38:57.282Z,94323.00
2024-04-15T11:39:57.331Z,94325.00
2024-04-15T11:40:57.379Z,94326.00
2024-04-15T11:41:57.420Z,94325.00
2024-04-15T11:42:57.559Z,94326.00
2024-04-15T11:43:57.614Z,94325.00
2024-04-15T11:44:57.701Z,94318.00
2024-04-15T11:45:57.781Z,94320.00
2024-04-15T11:46:57.929Z,94322.00
2024-04-15T11:47:57.964Z,94319.00
2024-04-15T11:48:58.106Z,94319.00
2024-04-15T11:49:57.967Z,94316.00
2024-04-15T11:50:58.049Z,94316.00
2024-04-15T11:51:58.151Z,94312.00